KH78

Offshore

Offshore, Louisiana, USA
METAR KH78 221753Z 14012KT 12SM SCT040 26/21 A3030 RMK SEAS 3-5
Observed Flight Rules
Feb-22 @ 17:53 UTC (17 hours ago) Visual Flight Rules
Wind Visibility Clouds
140° at 12 knots 12 miles
  • Scattered at 4,000' AGL
Temperatures Readings
Current 26°C / 79°F
Dewpoint 21°C / 70°F
Humidity 74%
Altimeter 30.3" Hg
Pressure 1026 hPa
Elevation 43
METAR KH78 221753Z 14012KT 12SM SCT040 26/21 A3030 RMK SEAS 3-5
Observed Flight Rules
Feb-22 @ 17:53 UTC
(17 hours ago)
VFR
Wind Visibility
140° at 12 knots 12 miles
Clouds
  • Scattered at 4,000' AGL
Temperature Dewpoint
26°C / 79°F 21°C / 70°F
Humidity Altimeter Pressure
74% 30.3" Hg 1026 hPa